createdAt,value
2018-12-03T00:00:41.730Z,90.1
2018-12-03T00:01:42.021Z,90
2018-12-03T00:02:41.948Z,90.1
2018-12-03T00:03:41.848Z,90.1
2018-12-03T00:04:41.724Z,90.1
2018-12-03T00:05:41.612Z,90.1
2018-12-03T00:06:41.540Z,90.2
2018-12-03T00:07:41.434Z,90
2018-12-03T00:08:41.306Z,90.1
2018-12-03T00:09:41.188Z,90.1
2018-12-03T00:10:41.078Z,90.2
2018-12-03T00:11:41.372Z,90.1
2018-12-03T00:12:41.275Z,90.2
2018-12-03T00:13:41.164Z,90.2
2018-12-03T00:14:41.054Z,90.2
2018-12-03T00:15:40.946Z,90.2
2018-12-03T00:16:40.845Z,90.3
2018-12-03T00:17:40.761Z,90.4
2018-12-03T00:18:40.662Z,90.4
2018-12-03T00:19:40.538Z,90.4
2018-12-03T00:20:40.415Z,90.4
2018-12-03T00:21:40.750Z,90.5
2018-12-03T00:22:40.721Z,90.6
2018-12-03T00:23:40.600Z,90.5
2018-12-03T00:24:40.484Z,90.5
2018-12-03T00:25:40.361Z,90.5
2018-12-03T00:26:40.255Z,90.5
2018-12-03T00:27:40.152Z,90.4
2018-12-03T00:28:40.028Z,90.4
2018-12-03T00:29:39.910Z,90.3
2018-12-03T00:30:39.797Z,90.4
2018-12-03T00:31:40.095Z,90.5
2018-12-03T00:32:39.990Z,90.5
2018-12-03T00:33:39.876Z,90.5
2018-12-03T00:34:39.768Z,90.3
2018-12-03T00:35:39.653Z,90.3
2018-12-03T00:36:39.526Z,90.3
2018-12-03T00:37:39.446Z,90.1
2018-12-03T00:38:39.330Z,90.1
2018-12-03T00:39:39.208Z,90.1
2018-12-03T00:40:39.075Z,90
2018-12-03T00:41:39.427Z,90.1
2018-12-03T00:42:39.302Z,90
2018-12-03T00:43:39.226Z,90
2018-12-03T00:44:39.113Z,90
2018-12-03T00:45:38.996Z,89.8
2018-12-03T00:46:38.879Z,89.7
2018-12-03T00:47:38.775Z,89.8
2018-12-03T00:48:38.651Z,89.8
2018-12-03T00:49:38.542Z,89.8
2018-12-03T00:50:38.425Z,89.7
2018-12-03T00:51:39.737Z,89.5
2018-12-03T00:52:39.631Z,89.6
2018-12-03T00:53:39.529Z,89.6
2018-12-03T00:54:39.443Z,88.7
2018-12-03T00:55:39.325Z,88.8
2018-12-03T00:56:39.213Z,88.7
2018-12-03T00:57:39.095Z,88.4
2018-12-03T00:58:38.985Z,87.9
2018-12-03T00:59:38.895Z,87.8
2018-12-03T01:00:38.783Z,87
2018-12-03T01:01:39.097Z,87.5
2018-12-03T01:02:38.994Z,87.4
2018-12-03T01:03:38.873Z,87.2
2018-12-03T01:04:38.761Z,87.1
2018-12-03T01:05:38.692Z,86.8
2018-12-03T01:06:38.579Z,86.8
2018-12-03T01:07:38.443Z,87
2018-12-03T01:08:38.341Z,87.1
2018-12-03T01:09:38.226Z,87.2
2018-12-03T01:10:38.121Z,87.4
2018-12-03T01:11:38.426Z,87.6
2018-12-03T01:12:38.326Z,88.4
2018-12-03T01:13:38.205Z,87.6
2018-12-03T01:14:38.113Z,87.8
2018-12-03T01:15:38.023Z,87.6
2018-12-03T01:16:37.894Z,87.8
2018-12-03T01:17:37.779Z,87.9
2018-12-03T01:18:37.659Z,87.8
2018-12-03T01:19:37.543Z,87.8
2018-12-03T01:20:37.457Z,88
2018-12-03T01:21:37.754Z,88
2018-12-03T01:22:37.697Z,88
2018-12-03T01:23:37.586Z,88
2018-12-03T01:24:37.465Z,88
2018-12-03T01:25:37.343Z,88
2018-12-03T01:26:37.267Z,88.7
2018-12-03T01:27:37.157Z,88
2018-12-03T01:28:37.038Z,88
2018-12-03T01:29:36.902Z,88.3
2018-12-03T01:30:36.792Z,88
2018-12-03T01:31:37.143Z,88.1
2018-12-03T01:32:37.043Z,88.3
2018-12-03T01:33:36.924Z,88.1
2018-12-03T01:34:36.802Z,88.1
2018-12-03T01:35:36.697Z,88.1
2018-12-03T01:36:36.602Z,88.1
2018-12-03T01:37:36.494Z,88.2
2018-12-03T01:38:36.519Z,88.2
2018-12-03T01:39:36.399Z,88.4
2018-12-03T01:40:36.291Z,88.3
2018-12-03T01:41:36.683Z,88.2
2018-12-03T01:42:36.576Z,88.3
2018-12-03T01:43:36.477Z,88.3
2018-12-03T01:44:36.375Z,88.3
2018-12-03T01:45:36.265Z,88.5
2018-12-03T01:46:36.147Z,88.5
2018-12-03T01:47:36.051Z,88.3
2018-12-03T01:48:35.963Z,88.7
2018-12-03T01:49:35.858Z,88.7
2018-12-03T01:50:35.735Z,88.7
2018-12-03T01:51:36.032Z,88.7
2018-12-03T01:52:35.922Z,88.7
2018-12-03T01:53:35.818Z,88.7
2018-12-03T01:54:35.694Z,88.7
2018-12-03T01:55:35.574Z,88.8
2018-12-03T01:56:35.463Z,89
2018-12-03T01:57:35.376Z,88.8
2018-12-03T01:58:35.273Z,89
2018-12-03T01:59:35.157Z,88.9
2018-12-03T02:00:35.104Z,88.9
2018-12-03T02:01:35.494Z,88.9
2018-12-03T02:02:35.395Z,89.1
2018-12-03T02:03:35.275Z,89
2018-12-03T02:04:35.207Z,89.1
2018-12-03T02:05:35.093Z,89.2
2018-12-03T02:06:34.977Z,89.2
2018-12-03T02:07:34.867Z,89.1
2018-12-03T02:08:34.759Z,89.1
2018-12-03T02:09:34.640Z,89.2
2018-12-03T02:10:34.520Z,89.1
2018-12-03T02:11:34.793Z,89.2
2018-12-03T02:12:34.705Z,89.1
2018-12-03T02:13:34.582Z,89.2
2018-12-03T02:14:34.460Z,89.1
2018-12-03T02:15:34.343Z,89.1
2018-12-03T02:16:34.224Z,89.1
2018-12-03T02:17:34.121Z,89.1
2018-12-03T02:18:34.009Z,89.2
2018-12-03T02:19:33.898Z,89.2
2018-12-03T02:20:33.778Z,89.1
2018-12-03T02:21:34.075Z,89.5
2018-12-03T02:22:33.959Z,89.5
2018-12-03T02:23:33.924Z,89.4
2018-12-03T02:24:33.811Z,89.1
2018-12-03T02:25:33.693Z,89.1
2018-12-03T02:26:33.567Z,88.7
2018-12-03T02:27:33.451Z,89.1
2018-12-03T02:28:33.390Z,89.1
2018-12-03T02:29:33.269Z,88.7
2018-12-03T02:30:33.165Z,88.9
2018-12-03T02:31:33.457Z,88.8
2018-12-03T02:32:33.362Z,88.9
2018-12-03T02:33:33.253Z,88.8
2018-12-03T02:34:33.178Z,88.6
2018-12-03T02:35:33.055Z,88.3
2018-12-03T02:36:32.952Z,88.2
2018-12-03T02:37:32.857Z,88.3
2018-12-03T02:38:32.788Z,87.5
2018-12-03T02:39:32.711Z,86.9
2018-12-03T02:40:32.606Z,86.9
2018-12-03T02:41:32.925Z,87.1
2018-12-03T02:42:32.825Z,87.4
2018-12-03T02:43:32.703Z,87.4
2018-12-03T02:44:32.599Z,87.4
2018-12-03T02:45:32.502Z,87.5
2018-12-03T02:46:32.372Z,87.5
2018-12-03T02:47:32.256Z,87.2
2018-12-03T02:48:32.163Z,87.5
2018-12-03T02:49:32.039Z,87.5
2018-12-03T02:50:31.936Z,87.6
2018-12-03T02:51:32.267Z,87.8
2018-12-03T02:52:32.143Z,88
2018-12-03T02:53:32.018Z,88.2
2018-12-03T02:54:31.921Z,88.3
2018-12-03T02:55:31.813Z,88.8
2018-12-03T02:56:31.691Z,88.7
2018-12-03T02:57:31.596Z,88.8
2018-12-03T02:58:31.503Z,88.8
2018-12-03T02:59:31.380Z,89.1
2018-12-03T03:00:31.277Z,88.8
2018-12-03T03:01:31.602Z,88.9
2018-12-03T03:02:31.510Z,88.9
2018-12-03T03:03:31.387Z,88.9
2018-12-03T03:04:31.294Z,88.8
2018-12-03T03:05:31.213Z,88.8
2018-12-03T03:06:31.135Z,89
2018-12-03T03:07:31.029Z,88.8
2018-12-03T03:08:30.939Z,88.6
2018-12-03T03:09:30.844Z,89.3
2018-12-03T03:10:30.738Z,88.5
2018-12-03T03:11:31.053Z,88.2
2018-12-03T03:12:30.936Z,88.5
2018-12-03T03:13:30.834Z,88.4
2018-12-03T03:14:30.716Z,87.9
2018-12-03T03:15:30.636Z,88.4
2018-12-03T03:16:30.540Z,88.5
2018-12-03T03:17:30.436Z,88.5
2018-12-03T03:18:30.328Z,88.5
2018-12-03T03:19:30.270Z,88.4
2018-12-03T03:20:30.174Z,88
2018-12-03T03:21:30.530Z,88
2018-12-03T03:22:30.431Z,88.1
2018-12-03T03:23:30.324Z,88.2
2018-12-03T03:24:30.222Z,88.2
2018-12-03T03:25:30.135Z,88.1
2018-12-03T03:26:30.036Z,88.3
2018-12-03T03:27:29.941Z,88
2018-12-03T03:28:29.824Z,88
2018-12-03T03:29:29.732Z,88
2018-12-03T03:30:29.671Z,87.5
2018-12-03T03:31:30.029Z,87.7
2018-12-03T03:32:29.959Z,87.8
2018-12-03T03:33:29.888Z,87.5
2018-12-03T03:34:29.810Z,87.4
2018-12-03T03:35:29.714Z,87.1
2018-12-03T03:36:29.606Z,87.1
2018-12-03T03:37:29.513Z,87.2
2018-12-03T03:38:29.393Z,87
2018-12-03T03:39:29.305Z,87
2018-12-03T03:40:29.212Z,86.9
2018-12-03T03:41:29.529Z,86.7
2018-12-03T03:42:29.418Z,86.9
2018-12-03T03:43:29.309Z,86.3
2018-12-03T03:44:29.177Z,86.7
2018-12-03T03:45:29.095Z,86.6
2018-12-03T03:46:28.986Z,86.7
2018-12-03T03:47:28.888Z,86.6
2018-12-03T03:48:28.783Z,86
2018-12-03T03:49:28.664Z,86
2018-12-03T03:50:28.579Z,85.6
2018-12-03T03:51:28.884Z,85.8
2018-12-03T03:52:28.763Z,86
2018-12-03T03:53:28.646Z,85.8
2018-12-03T03:54:28.545Z,86
2018-12-03T03:55:28.474Z,86
2018-12-03T03:56:28.360Z,85.8
2018-12-03T03:57:28.255Z,85.7
2018-12-03T03:58:28.154Z,85.8
2018-12-03T03:59:28.065Z,85.7
2018-12-03T04:00:27.955Z,85.7
2018-12-03T04:01:28.322Z,85.7
2018-12-03T04:02:28.202Z,85.3
2018-12-03T04:03:28.090Z,85.4
2018-12-03T04:04:27.985Z,85.2
2018-12-03T04:05:27.892Z,85
2018-12-03T04:06:27.819Z,85
2018-12-03T04:07:27.720Z,84.9
2018-12-03T04:08:27.606Z,84.8
2018-12-03T04:09:27.489Z,85
2018-12-03T04:10:27.385Z,85
2018-12-03T04:11:27.729Z,84.9
2018-12-03T04:12:27.628Z,85
2018-12-03T04:13:27.503Z,85.2
2018-12-03T04:14:27.400Z,85
2018-12-03T04:15:27.274Z,85.3
2018-12-03T04:16:27.149Z,85.2
2018-12-03T04:17:27.049Z,85.3
2018-12-03T04:18:26.939Z,85.4
2018-12-03T04:19:26.816Z,85.7
2018-12-03T04:20:26.709Z,85.8
2018-12-03T04:21:27.027Z,85.7
2018-12-03T04:22:26.945Z,85.7
2018-12-03T04:23:26.844Z,85.7
2018-12-03T04:24:26.729Z,86
2018-12-03T04:25:26.617Z,86.1
2018-12-03T04:26:26.503Z,86
2018-12-03T04:27:26.394Z,85.9
2018-12-03T04:28:26.325Z,85.9
2018-12-03T04:29:26.230Z,85.9
2018-12-03T04:30:26.126Z,86.1
2018-12-03T04:31:26.444Z,85.9
2018-12-03T04:32:26.306Z,86.2
2018-12-03T04:33:26.204Z,85.9
2018-12-03T04:34:26.088Z,86
2018-12-03T04:35:25.975Z,85.9
2018-12-03T04:36:25.870Z,85.6
2018-12-03T04:37:25.763Z,85.8
2018-12-03T04:38:25.645Z,85.7
2018-12-03T04:39:25.549Z,85.8
2018-12-03T04:40:25.452Z,85.9
2018-12-03T04:41:25.754Z,85.9
2018-12-03T04:42:25.666Z,85.8
2018-12-03T04:43:25.566Z,85.9
2018-12-03T04:44:25.469Z,85.7
2018-12-03T04:45:25.365Z,85.7
2018-12-03T04:46:25.259Z,85.9
2018-12-03T04:47:25.151Z,85.9
2018-12-03T04:48:25.053Z,86
2018-12-03T04:49:24.977Z,86
2018-12-03T04:50:24.881Z,86.2
2018-12-03T04:51:25.249Z,86.2
2018-12-03T04:52:25.129Z,86.3
2018-12-03T04:53:25.011Z,86.5
2018-12-03T04:54:24.903Z,86.5
2018-12-03T04:55:24.807Z,86.6
2018-12-03T04:56:24.706Z,86.6
2018-12-03T04:57:24.592Z,86.8
2018-12-03T04:58:24.474Z,86.8
2018-12-03T04:59:24.361Z,86.9
2018-12-03T05:00:24.268Z,87.1
2018-12-03T05:01:24.578Z,87.9
2018-12-03T05:02:24.458Z,87
2018-12-03T05:03:24.350Z,87.1
2018-12-03T05:04:24.240Z,87.2
2018-12-03T05:05:24.153Z,87.4
2018-12-03T05:06:24.028Z,87.4
2018-12-03T05:07:23.938Z,87.5
2018-12-03T05:08:23.814Z,87.8
2018-12-03T05:09:23.698Z,87.9
2018-12-03T05:10:23.601Z,87.9
2018-12-03T05:11:23.964Z,88
2018-12-03T05:12:23.832Z,88.5
2018-12-03T05:13:23.732Z,88.4
2018-12-03T05:14:23.620Z,88.5
2018-12-03T05:15:23.504Z,89
2018-12-03T05:16:23.418Z,88.9
2018-12-03T05:17:23.304Z,89.1
2018-12-03T05:18:23.176Z,89.2
2018-12-03T05:19:23.066Z,89.4
2018-12-03T05:20:22.961Z,89.5
2018-12-03T05:21:23.294Z,89.6
2018-12-03T05:22:23.204Z,89.6
2018-12-03T05:23:23.090Z,89.8
2018-12-03T05:24:23.042Z,89.9
2018-12-03T05:25:22.938Z,90
2018-12-03T05:26:22.820Z,90
2018-12-03T05:27:22.737Z,90.2
2018-12-03T05:28:22.627Z,90.6
2018-12-03T05:29:22.508Z,90.2
2018-12-03T05:30:22.402Z,90.3
2018-12-03T05:31:22.710Z,90.6
2018-12-03T05:32:22.594Z,90.2
2018-12-03T05:33:22.558Z,90.3
2018-12-03T05:34:22.472Z,90.2
2018-12-03T05:35:22.384Z,90.2
2018-12-03T05:36:22.294Z,90.2
2018-12-03T05:37:26.154Z,90.2
2018-12-03T05:38:26.068Z,90.2
2018-12-03T05:39:25.956Z,90.3
2018-12-03T05:40:25.855Z,90.3
2018-12-03T05:41:26.173Z,90.3
2018-12-03T05:42:26.051Z,90.3
2018-12-03T05:43:25.955Z,90.3
2018-12-03T05:44:25.824Z,90.3
2018-12-03T05:45:25.771Z,89.8
2018-12-03T05:46:25.650Z,89.6
2018-12-03T05:47:25.541Z,89.5
2018-12-03T05:48:25.446Z,89.4
2018-12-03T05:49:25.364Z,88.9
2018-12-03T05:50:25.241Z,88.8
2018-12-03T05:51:25.530Z,88.7
2018-12-03T05:52:25.432Z,89.4
2018-12-03T05:53:25.317Z,89.4
2018-12-03T05:54:25.216Z,89.2
2018-12-03T05:55:25.096Z,89.3
2018-12-03T05:56:24.966Z,89.1
2018-12-03T05:57:24.855Z,89
2018-12-03T05:58:24.743Z,89.2
2018-12-03T05:59:24.647Z,89
2018-12-03T06:00:24.535Z,89.2
2018-12-03T06:01:24.838Z,89.3
2018-12-03T06:02:24.722Z,89.3
2018-12-03T06:03:24.605Z,89.4
2018-12-03T06:04:24.499Z,89.5
2018-12-03T06:05:24.385Z,89.5
2018-12-03T06:06:24.282Z,89.9
2018-12-03T06:07:24.161Z,90
2018-12-03T06:08:24.055Z,90
2018-12-03T06:09:23.943Z,90
2018-12-03T06:10:23.827Z,90.1
2018-12-03T06:11:24.132Z,90.4
2018-12-03T06:12:24.029Z,90.1
2018-12-03T06:13:23.935Z,90.1
2018-12-03T06:14:23.819Z,90.1
2018-12-03T06:15:23.739Z,90
2018-12-03T06:16:23.617Z,89.6
2018-12-03T06:17:23.511Z,89.5
2018-12-03T06:19:23.163Z,89.4
2018-12-03T06:20:23.053Z,89.1
2018-12-03T06:21:23.365Z,89
2018-12-03T06:22:23.259Z,88.6
2018-12-03T06:23:23.159Z,88.3
2018-12-03T06:24:23.100Z,88.1
2018-12-03T06:25:23.003Z,88.1
2018-12-03T06:26:22.905Z,88
2018-12-03T06:27:22.782Z,88.6
2018-12-03T06:28:22.673Z,87.7
2018-12-03T06:29:22.555Z,87.7
2018-12-03T06:30:22.439Z,87.5
2018-12-03T06:31:22.734Z,88
2018-12-03T06:32:22.654Z,87.2
2018-12-03T06:33:22.561Z,87.7
2018-12-03T06:34:22.454Z,86.9
2018-12-03T06:35:22.367Z,86.8
2018-12-03T06:36:22.254Z,87.8
2018-12-03T06:37:22.146Z,87.1
2018-12-03T06:38:22.042Z,86.9
2018-12-03T06:39:21.938Z,86.2
2018-12-03T06:40:21.844Z,87
2018-12-03T06:41:22.166Z,87.2
2018-12-03T06:42:22.096Z,87.3
2018-12-03T06:43:21.988Z,87.3
2018-12-03T06:44:21.871Z,87.4
2018-12-03T06:45:21.770Z,87.5
2018-12-03T06:46:21.681Z,87.5
2018-12-03T06:47:21.565Z,87.8
2018-12-03T06:48:21.468Z,87.9
2018-12-03T06:49:21.334Z,88.1
2018-12-03T06:50:21.223Z,88.2
2018-12-03T06:51:21.554Z,88.5
2018-12-03T06:52:21.437Z,88.4
2018-12-03T06:53:21.318Z,88.6
2018-12-03T06:54:21.202Z,88.5
2018-12-03T06:55:21.078Z,88.3
2018-12-03T06:56:20.990Z,88.3
2018-12-03T06:57:20.870Z,88.4
2018-12-03T06:58:20.748Z,88.3
2018-12-03T06:59:20.654Z,89.1
2018-12-03T07:00:20.554Z,88.3
2018-12-03T07:01:20.870Z,88.5
2018-12-03T07:02:20.764Z,88.2
2018-12-03T07:03:20.701Z,87.9
2018-12-03T07:04:20.594Z,87.9
2018-12-03T07:05:20.504Z,87.9
2018-12-03T07:06:20.412Z,87.9
2018-12-03T07:07:20.306Z,87.7
2018-12-03T07:08:20.215Z,87.6
2018-12-03T07:09:20.077Z,87.6
2018-12-03T07:10:20.008Z,87.6
2018-12-03T07:11:20.338Z,87.9
2018-12-03T07:12:20.219Z,88.1
2018-12-03T07:13:20.150Z,88.1
2018-12-03T07:14:20.041Z,87.9
2018-12-03T07:15:19.931Z,87.9
2018-12-03T07:16:19.826Z,87.9
2018-12-03T07:17:19.715Z,88
2018-12-03T07:18:19.609Z,87.9
2018-12-03T07:19:19.502Z,87.9
2018-12-03T07:20:19.392Z,88.1
2018-12-03T07:21:19.706Z,87.7
2018-12-03T07:22:19.613Z,87.8
2018-12-03T07:23:19.510Z,87.9
2018-12-03T07:24:19.429Z,87.8
2018-12-03T07:25:19.311Z,87.6
2018-12-03T07:26:19.212Z,87.6
2018-12-03T07:27:20.367Z,87.6
2018-12-03T07:28:20.282Z,87.7
2018-12-03T07:29:20.191Z,87.8
2018-12-03T07:30:20.099Z,87
2018-12-03T07:31:20.397Z,87.2
2018-12-03T07:32:20.277Z,87.1
2018-12-03T07:33:20.169Z,87.3
2018-12-03T07:34:20.087Z,87.5
2018-12-03T07:35:19.976Z,87.4
2018-12-03T07:36:19.869Z,87.5
2018-12-03T07:37:19.750Z,87.4
2018-12-03T07:38:19.629Z,87.4
2018-12-03T07:39:19.510Z,87.8
2018-12-03T07:40:19.415Z,87.6
2018-12-03T07:41:19.712Z,87.6
2018-12-03T07:42:19.583Z,87.8
2018-12-03T07:43:19.469Z,87.6
2018-12-03T07:44:19.346Z,87.6
2018-12-03T07:45:19.255Z,87.6
2018-12-03T07:46:19.157Z,87.4
2018-12-03T07:47:19.043Z,87.6
2018-12-03T07:48:18.937Z,87.9
2018-12-03T07:49:18.851Z,87.6
2018-12-03T07:50:18.798Z,87.5
2018-12-03T07:51:19.127Z,87.4
2018-12-03T07:52:19.007Z,87.4
2018-12-03T07:53:18.877Z,87.2
2018-12-03T07:54:18.741Z,87.6
2018-12-03T07:55:18.623Z,87.4
2018-12-03T07:56:18.521Z,87.1
2018-12-03T07:57:18.416Z,87
2018-12-03T07:58:18.318Z,87.1
2018-12-03T07:59:18.224Z,87
2018-12-03T08:00:18.122Z,86.9
2018-12-03T08:01:18.470Z,87
2018-12-03T08:02:18.371Z,87
2018-12-03T08:03:18.258Z,86.8
2018-12-03T08:04:18.154Z,86.6
2018-12-03T08:05:18.037Z,86.5
2018-12-03T08:06:17.942Z,86.6
2018-12-03T08:07:17.814Z,86.6
2018-12-03T08:08:17.698Z,86.7
2018-12-03T08:09:17.589Z,86.7
2018-12-03T08:10:17.474Z,86.8
2018-12-03T08:11:17.800Z,86.5
2018-12-03T08:12:17.694Z,86.9
2018-12-03T08:13:17.564Z,86.7
2018-12-03T08:14:17.454Z,86.9
2018-12-03T08:15:17.349Z,87.1
2018-12-03T08:16:17.256Z,86.9
2018-12-03T08:17:17.141Z,86.9
2018-12-03T08:18:17.031Z,86.6
2018-12-03T08:19:16.963Z,86.5
2018-12-03T08:20:16.869Z,86.5
2018-12-03T08:21:17.222Z,87.4
2018-12-03T08:22:17.121Z,86.8
2018-12-03T08:23:17.010Z,86.5
2018-12-03T08:24:16.882Z,86.5
2018-12-03T08:25:16.766Z,86.4
2018-12-03T08:26:16.646Z,86.5
2018-12-03T08:27:16.542Z,86.3
2018-12-03T08:28:16.432Z,86.6
2018-12-03T08:29:16.316Z,86.5
2018-12-03T08:30:16.204Z,86.1
2018-12-03T08:31:16.516Z,86
2018-12-03T08:32:16.416Z,86.1
2018-12-03T08:33:16.324Z,86
2018-12-03T08:34:16.210Z,85.8
2018-12-03T08:35:16.097Z,85.6
2018-12-03T08:36:15.986Z,85.4
2018-12-03T08:37:15.886Z,85.4
2018-12-03T08:38:15.769Z,85
2018-12-03T08:39:15.673Z,84.6
2018-12-03T08:40:15.784Z,84.9
2018-12-03T08:41:16.106Z,85
2018-12-03T08:42:16.062Z,85.3
2018-12-03T08:43:15.940Z,85
2018-12-03T08:44:15.826Z,85.1
2018-12-03T08:45:16.727Z,85
2018-12-03T08:46:16.617Z,84.7
2018-12-03T08:47:16.505Z,84.5
2018-12-03T08:48:16.421Z,84.3
2018-12-03T08:49:17.296Z,83.5
2018-12-03T08:50:17.206Z,83.2
2018-12-03T08:51:17.528Z,83.8
2018-12-03T08:52:17.428Z,83.5
2018-12-03T08:53:17.328Z,83.4
2018-12-03T08:54:17.212Z,83.2
2018-12-03T08:55:17.107Z,83.1
2018-12-03T08:56:17.002Z,83.2
2018-12-03T08:57:16.886Z,82.7
2018-12-03T08:58:16.821Z,82.8
2018-12-03T08:59:16.708Z,82.8
2018-12-03T09:00:16.590Z,82.7
2018-12-03T09:01:16.930Z,82.5
2018-12-03T09:02:16.814Z,82.3
2018-12-03T09:03:16.720Z,82.3
2018-12-03T09:04:16.622Z,82.5
2018-12-03T09:05:16.515Z,82.2
2018-12-03T09:06:16.421Z,82.4
2018-12-03T09:07:16.314Z,82.7
2018-12-03T09:08:16.199Z,82.5
2018-12-03T09:09:16.110Z,82.7
2018-12-03T09:10:16.004Z,82.7
2018-12-03T09:11:16.328Z,83
2018-12-03T09:12:16.225Z,82.7
2018-12-03T09:13:16.123Z,82.9
2018-12-03T09:14:16.028Z,82.5
2018-12-03T09:15:15.912Z,82.3
2018-12-03T09:16:15.808Z,82.1
2018-12-03T09:17:15.700Z,82.2
2018-12-03T09:18:15.583Z,82.4
2018-12-03T09:19:15.466Z,82.6
2018-12-03T09:20:15.387Z,82.5
2018-12-03T09:21:15.680Z,82.5
2018-12-03T09:22:15.580Z,82.7
2018-12-03T09:23:15.474Z,82.6
2018-12-03T09:24:15.361Z,82.7
2018-12-03T09:25:15.256Z,83
2018-12-03T09:26:15.135Z,83.1
2018-12-03T09:27:15.014Z,83.2
2018-12-03T09:28:14.900Z,83.6
2018-12-03T09:29:14.788Z,83.6
2018-12-03T09:30:14.722Z,83.5
2018-12-03T09:31:15.046Z,83.6
2018-12-03T09:32:14.958Z,83.9
2018-12-03T09:33:14.898Z,83.9
2018-12-03T09:34:14.786Z,83.4
2018-12-03T09:35:14.691Z,83.6
2018-12-03T09:36:14.602Z,83
2018-12-03T09:37:14.493Z,83
2018-12-03T09:38:14.379Z,82.7
2018-12-03T09:39:14.259Z,82.6
2018-12-03T09:40:14.128Z,82.2
2018-12-03T09:41:14.495Z,82.1
2018-12-03T09:42:14.407Z,82.1
2018-12-03T09:43:14.301Z,81.8
2018-12-03T09:44:14.190Z,81.1
2018-12-03T09:45:14.088Z,81.3
2018-12-03T09:46:14.017Z,80.8
2018-12-03T09:47:13.903Z,80.5
2018-12-03T09:48:13.801Z,81.1
2018-12-03T09:49:13.680Z,80.1
2018-12-03T09:50:13.559Z,80.8
2018-12-03T09:51:13.840Z,80.7
2018-12-03T09:52:13.746Z,80.3
2018-12-03T09:53:13.628Z,80.4
2018-12-03T09:54:13.529Z,80.4
2018-12-03T09:55:13.401Z,80.5
2018-12-03T09:56:13.337Z,80.6
2018-12-03T09:57:13.232Z,80.5
2018-12-03T09:58:13.138Z,80.8
2018-12-03T09:59:13.015Z,81.2
2018-12-03T10:00:12.889Z,81.4
2018-12-03T10:01:13.207Z,81.3
2018-12-03T10:02:13.101Z,81.6
2018-12-03T10:03:13.005Z,81.6
2018-12-03T10:04:12.904Z,82
2018-12-03T10:05:12.801Z,82.8
2018-12-03T10:06:12.695Z,82
2018-12-03T10:07:12.604Z,81.9
2018-12-03T10:08:12.512Z,82.3
2018-12-03T10:09:12.410Z,82.5
2018-12-03T10:10:12.297Z,82.8
2018-12-03T10:11:12.611Z,82.9
2018-12-03T10:12:18.387Z,82.5
2018-12-03T10:13:18.267Z,82.3
2018-12-03T10:14:18.153Z,82.5
2018-12-03T10:15:18.029Z,82.9
2018-12-03T10:16:17.914Z,82.8
2018-12-03T10:17:17.821Z,82.5
2018-12-03T10:18:17.729Z,82.9
2018-12-03T10:19:17.626Z,82.7
2018-12-03T10:20:17.522Z,82.7
2018-12-03T10:21:17.851Z,82.6
2018-12-03T10:22:17.779Z,82.3
2018-12-03T10:23:17.717Z,82.4
2018-12-03T10:24:17.599Z,82.5
2018-12-03T10:25:17.501Z,82.3
2018-12-03T10:26:17.401Z,82.1
2018-12-03T10:27:17.301Z,82.3
2018-12-03T10:28:17.201Z,82.3
2018-12-03T10:29:17.085Z,82.7
2018-12-03T10:30:16.989Z,83.1
2018-12-03T10:31:17.315Z,82.9
2018-12-03T10:32:17.190Z,83.4
2018-12-03T10:33:17.095Z,83.6
2018-12-03T10:34:16.972Z,83.2
2018-12-03T10:35:16.838Z,82.9
2018-12-03T10:36:16.747Z,82.7
2018-12-03T10:37:16.637Z,82.9
2018-12-03T10:38:16.529Z,83.3
2018-12-03T10:39:16.427Z,83.3
2018-12-03T10:40:16.323Z,81.8
2018-12-03T10:41:16.633Z,82.5
2018-12-03T10:42:16.513Z,82
2018-12-03T10:43:16.409Z,81.7
2018-12-03T10:44:16.313Z,80.8
2018-12-03T10:45:16.180Z,80.8
2018-12-03T10:46:16.074Z,80.7
2018-12-03T10:47:15.969Z,80.5
2018-12-03T10:48:15.856Z,80.9
2018-12-03T10:49:15.766Z,79.7
2018-12-03T10:50:15.651Z,79.9
2018-12-03T10:51:15.946Z,80.5
2018-12-03T10:52:15.823Z,80.9
2018-12-03T10:53:15.713Z,81.1
2018-12-03T10:54:15.615Z,81.2
2018-12-03T10:55:15.503Z,80.8
2018-12-03T10:56:15.367Z,81
2018-12-03T10:57:15.267Z,81.5
2018-12-03T10:58:15.176Z,80.7
2018-12-03T10:59:15.083Z,81.4
2018-12-03T11:00:15.001Z,79.2
2018-12-03T11:01:15.319Z,80
2018-12-03T11:02:15.191Z,78.6
2018-12-03T11:03:15.067Z,77.9
2018-12-03T11:04:14.976Z,79.6
2018-12-03T11:05:14.873Z,79.5
2018-12-03T11:06:14.774Z,78.4
2018-12-03T11:07:14.663Z,78.2
2018-12-03T11:08:14.589Z,78.3
2018-12-03T11:09:14.483Z,78.1
2018-12-03T11:10:14.377Z,78.2
2018-12-03T11:11:14.710Z,77.2
2018-12-03T11:12:14.588Z,77.3
2018-12-03T11:13:14.469Z,77.7
2018-12-03T11:14:14.363Z,76.7
2018-12-03T11:15:14.275Z,76.1
2018-12-03T11:16:14.170Z,76.8
2018-12-03T11:17:14.057Z,76.3
2018-12-03T11:18:13.942Z,75.8
2018-12-03T11:19:13.837Z,75.9
2018-12-03T11:20:13.717Z,76.2
2018-12-03T11:21:14.110Z,77.7
2018-12-03T11:22:13.983Z,76.7
2018-12-03T11:23:13.877Z,76.9
2018-12-03T11:24:13.779Z,75.5
2018-12-03T11:25:13.671Z,76
2018-12-03T11:26:13.595Z,76.3
2018-12-03T11:27:13.498Z,75.6
2018-12-03T11:28:13.383Z,75.4
2018-12-03T11:29:13.255Z,76
2018-12-03T11:30:13.137Z,76.1
2018-12-03T11:31:13.476Z,75.8
2018-12-03T11:32:13.359Z,76.5
2018-12-03T11:33:13.259Z,76.3
2018-12-03T11:34:13.154Z,75.2
2018-12-03T11:35:13.048Z,74.3
2018-12-03T11:36:12.970Z,74.3
2018-12-03T11:37:12.869Z,73.6
2018-12-03T11:38:12.772Z,73.4
2018-12-03T11:39:12.675Z,73.9
2018-12-03T11:40:12.566Z,74.3
2018-12-03T11:41:12.923Z,74.5
2018-12-03T11:42:12.819Z,74.1
2018-12-03T11:43:12.711Z,74.3
2018-12-03T11:44:12.603Z,74.7
2018-12-03T11:45:12.487Z,74.3
2018-12-03T11:46:12.372Z,74.6
2018-12-03T11:47:12.279Z,75.2
2018-12-03T11:48:12.184Z,74.7
2018-12-03T11:49:12.100Z,74.2
2018-12-03T11:50:11.982Z,74
2018-12-03T11:51:12.317Z,74.1
2018-12-03T11:52:12.241Z,75.2
2018-12-03T11:53:12.130Z,74.7
2018-12-03T11:54:12.006Z,74.1
2018-12-03T11:55:11.914Z,74.1
2018-12-03T11:56:11.809Z,74
2018-12-03T11:57:11.689Z,73
2018-12-03T11:58:11.586Z,73.8
2018-12-03T11:59:11.471Z,72.9
2018-12-03T12:00:11.376Z,72.9
2018-12-03T12:01:11.707Z,71.1
2018-12-03T12:02:11.619Z,72.2
2018-12-03T12:03:11.540Z,72.5
2018-12-03T12:04:11.428Z,72.9
2018-12-03T12:05:11.322Z,73
2018-12-03T12:06:11.213Z,72.1
2018-12-03T12:07:11.135Z,72.5
2018-12-03T12:08:11.091Z,72.3
2018-12-03T12:09:10.995Z,71.6
2018-12-03T12:10:10.952Z,71.4
2018-12-03T12:11:11.282Z,71
2018-12-03T12:12:11.198Z,71.6
2018-12-03T12:13:11.110Z,70.6
2018-12-03T12:14:11.012Z,70.2
2018-12-03T12:15:10.906Z,69.2
2018-12-03T12:16:10.802Z,69.1
2018-12-03T12:17:10.694Z,69.6
2018-12-03T12:18:10.574Z,70
2018-12-03T12:19:10.490Z,69.4
2018-12-03T12:20:10.405Z,70.9
2018-12-03T12:21:10.772Z,71.6
2018-12-03T12:22:10.681Z,71
2018-12-03T12:23:10.562Z,70.3
2018-12-03T12:24:10.459Z,70.3
2018-12-03T12:25:10.357Z,71.2
2018-12-03T12:26:10.302Z,72
2018-12-03T12:27:12.776Z,71.6
2018-12-03T12:28:12.678Z,72
2018-12-03T12:29:12.551Z,72.1
2018-12-03T12:30:12.469Z,71.2
2018-12-03T12:31:12.816Z,71.8
2018-12-03T12:32:12.727Z,71.5
2018-12-03T12:33:12.625Z,71.8
2018-12-03T12:34:12.521Z,72
2018-12-03T12:35:12.429Z,71.9
2018-12-03T12:36:12.318Z,71.3
2018-12-03T12:37:15.045Z,71.5
2018-12-03T12:38:14.954Z,72.4
2018-12-03T12:39:14.871Z,72.1
2018-12-03T12:40:14.808Z,72.7
2018-12-03T12:41:15.105Z,72.5
2018-12-03T12:42:14.998Z,72.8
2018-12-03T12:43:14.873Z,73.2
2018-12-03T12:44:14.761Z,73
2018-12-03T12:45:14.658Z,73.2
2018-12-03T12:46:14.567Z,72.4
2018-12-03T12:47:14.476Z,73.2
2018-12-03T12:48:14.369Z,73.1
2018-12-03T12:49:14.270Z,72.6
2018-12-03T12:50:14.165Z,72.2
2018-12-03T12:51:14.538Z,73
2018-12-03T12:52:14.513Z,72.8
2018-12-03T12:53:14.403Z,73.1
2018-12-03T12:54:14.301Z,72.5
2018-12-03T12:55:14.247Z,72.3
2018-12-03T12:56:14.152Z,72.6
2018-12-03T12:57:14.041Z,72.6
2018-12-03T12:58:13.936Z,72.6
2018-12-03T12:59:13.817Z,72
2018-12-03T13:00:13.717Z,71.8
2018-12-03T13:01:14.047Z,71.1
2018-12-03T13:02:13.953Z,70.8
2018-12-03T13:03:13.869Z,70.9
2018-12-03T13:04:13.741Z,71
2018-12-03T13:05:13.637Z,71.8
2018-12-03T13:06:13.552Z,72.1
2018-12-03T13:07:13.478Z,72.4
2018-12-03T13:08:13.371Z,73
2018-12-03T13:09:13.273Z,72.2
2018-12-03T13:10:13.163Z,72
2018-12-03T13:11:13.508Z,71.4
2018-12-03T13:12:13.403Z,71
2018-12-03T13:13:13.291Z,73.4
2018-12-03T13:14:13.182Z,72.1
2018-12-03T13:15:13.064Z,72.6
2018-12-03T13:16:12.977Z,72.7
2018-12-03T13:17:12.877Z,73
2018-12-03T13:18:12.755Z,73.8
2018-12-03T13:19:12.660Z,73.6
2018-12-03T13:20:12.553Z,72.8
2018-12-03T13:21:12.851Z,73.6
2018-12-03T13:22:12.776Z,73.2
2018-12-03T13:23:12.678Z,72.9
2018-12-03T13:24:12.562Z,73.1
2018-12-03T13:25:12.471Z,73.3
2018-12-03T13:26:12.363Z,72.8